Time;durP1;ratioP1;P1;durP2;ratioP2;P2;SDS_P1;SDS_P2;PMS_P1;PMS_P2;Temp;Humidity;BMP_temperature;BMP_pressure;BME280_temperature;BME280_humidity;BME280_pressure;Samples;Min_cycle;Max_cycle;Signal;HPM_P1;HPM_P2
2022/09/21 00:01:10;;;;;;;28.00;15.98;;;;;;;9.02;78.34;99759.31;5070872;28;20033;-56
2022/09/21 00:03:36;;;;;;;21.77;14.88;;;;;;;8.97;77.75;99754.34;5071661;28;20020;-59
2022/09/21 00:06:04;;;;;;;26.33;16.08;;;;;;;9.01;77.55;99765.63;5072011;28;20070;-53
2022/09/21 00:08:29;;;;;;;22.75;16.17;;;;;;;8.98;77.45;99764.06;5071395;28;20032;-53
2022/09/21 00:10:55;;;;;;;28.50;16.77;;;;;;;8.99;77.74;99756.88;5070998;28;20123;-54
2022/09/21 00:13:20;;;;;;;32.63;17.40;;;;;;;8.91;78.02;99746.78;5071364;28;20039;-58
2022/09/21 00:15:46;;;;;;;27.70;16.88;;;;;;;9.00;78.08;99764.78;5071954;28;20024;-57
2022/09/21 00:18:12;;;;;;;27.83;16.63;;;;;;;8.95;77.60;99756.28;5071506;28;20107;-54
2022/09/21 00:20:42;;;;;;;28.45;15.77;;;;;;;8.99;77.73;99763.09;5071351;28;20028;-56
2022/09/21 00:23:08;;;;;;;30.75;17.15;;;;;;;8.97;78.16;99765.03;5071465;28;20065;-52
2022/09/21 00:25:34;;;;;;;27.08;15.73;;;;;;;8.98;77.81;99758.72;5072393;28;20093;-52
2022/09/21 00:28:00;;;;;;;24.08;15.50;;;;;;;8.95;77.97;99750.94;5074789;28;20041;-54
2022/09/21 00:30:26;;;;;;;23.50;15.35;;;;;;;8.96;77.79;99758.00;5074390;28;20035;-52
2022/09/21 00:32:53;;;;;;;23.15;15.55;;;;;;;8.92;77.81;99753.81;5074232;28;20025;-51
2022/09/21 00:35:18;;;;;;;24.13;15.38;;;;;;;8.95;77.62;99758.97;5075042;28;20028;-53
2022/09/21 00:37:44;;;;;;;28.33;16.17;;;;;;;8.93;77.65;99760.03;5074948;28;20035;-48
2022/09/21 00:40:10;;;;;;;27.58;16.05;;;;;;;8.89;77.80;99754.91;5073976;28;20044;-52
2022/09/21 00:42:37;;;;;;;22.05;15.48;;;;;;;8.93;77.45;99774.25;5073821;28;20025;-54
2022/09/21 00:45:04;;;;;;;22.52;15.13;;;;;;;8.91;77.82;99776.16;5074992;28;20304;-55
2022/09/21 00:47:44;;;;;;;22.55;15.40;;;;;;;9.02;77.53;99775.34;5074305;28;20123;-51
2022/09/21 00:50:14;;;;;;;25.60;15.90;;;;;;;8.96;77.70;99776.69;5074231;28;20106;-52
2022/09/21 00:52:46;;;;;;;27.02;16.15;;;;;;;8.93;77.83;99768.03;5074065;28;20362;-52
2022/09/21 00:55:21;;;;;;;21.88;15.10;;;;;;;8.95;77.66;99774.97;5074179;28;20467;-59
2022/09/21 00:57:50;;;;;;;26.23;15.55;;;;;;;8.93;77.26;99770.72;5073932;28;20028;-51
2022/09/21 01:00:15;;;;;;;27.48;15.30;;;;;;;8.83;77.31;99760.72;5074031;28;20102;-54
2022/09/21 01:02:41;;;;;;;24.48;15.27;;;;;;;8.86;77.37;99765.84;5074165;28;20032;-53
2022/09/21 01:05:08;;;;;;;27.20;15.52;;;;;;;8.87;77.74;99772.00;5074089;28;20482;-52
2022/09/21 01:07:36;;;;;;;26.25;15.50;;;;;;;8.87;77.45;99769.34;5073901;28;20112;-55
2022/09/21 01:10:11;;;;;;;26.60;15.60;;;;;;;8.89;77.93;99775.41;5073896;28;20055;-54
2022/09/21 01:12:45;;;;;;;28.00;15.30;;;;;;;8.84;77.63;99772.25;5073590;28;20443;-55
2022/09/21 01:15:23;;;;;;;26.55;16.00;;;;;;;8.87;77.59;99772.88;5074103;28;20040;-54
2022/09/21 01:18:08;;;;;;;30.02;15.85;;;;;;;8.85;77.67;99766.81;5074124;28;20036;-55
2022/09/21 01:20:46;;;;;;;26.97;15.37;;;;;;;8.84;77.17;99769.56;5073286;28;20036;-53
2022/09/21 01:23:26;;;;;;;27.60;15.68;;;;;;;8.87;77.74;99767.53;5073415;28;20039;-54
2022/09/21 01:26:22;;;;;;;26.38;15.48;;;;;;;8.91;77.86;99754.78;5074125;28;20043;-50
2022/09/21 01:29:06;;;;;;;28.48;14.70;;;;;;;8.84;77.38;99758.88;5072854;28;20064;-52
2022/09/21 01:31:43;;;;;;;23.17;14.48;;;;;;;8.87;77.36;99756.00;5073394;28;20033;-49
2022/09/21 01:34:18;;;;;;;26.63;14.57;;;;;;;8.83;77.46;99758.06;5074283;28;20036;-54
2022/09/21 01:36:48;;;;;;;23.23;13.95;;;;;;;8.76;77.62;99754.13;5073018;28;20389;-56
2022/09/21 01:39:17;;;;;;;26.35;15.23;;;;;;;8.63;77.72;99740.84;5073185;28;20028;-54
2022/09/21 01:41:45;;;;;;;23.20;14.65;;;;;;;8.78;77.96;99764.69;5073833;28;20044;-53
2022/09/21 01:44:19;;;;;;;24.38;14.98;;;;;;;8.74;77.90;99764.94;5073572;28;20411;-51
2022/09/21 01:46:46;;;;;;;28.25;15.38;;;;;;;8.70;77.96;99759.91;5072725;28;20042;-58
2022/09/21 01:49:15;;;;;;;27.02;14.73;;;;;;;8.72;77.72;99764.19;5073305;28;20062;-58
2022/09/21 01:51:49;;;;;;;22.23;13.98;;;;;;;8.73;78.12;99771.22;5074104;28;20036;-54
2022/09/21 01:54:22;;;;;;;22.25;13.85;;;;;;;8.78;77.89;99778.03;5073474;28;20029;-61
2022/09/21 01:57:20;;;;;;;27.02;14.55;;;;;;;8.84;78.12;99772.25;5073044;28;20032;-53
2022/09/21 01:59:51;;;;;;;27.13;13.88;;;;;;;8.76;77.84;99772.81;5048626;28;20485;-52
2022/09/21 02:02:30;;;;;;;29.08;14.88;;;;;;;8.76;77.73;99767.47;5072944;28;20029;-53
2022/09/21 02:05:00;;;;;;;24.05;14.57;;;;;;;8.72;77.74;99780.22;5072993;28;20032;-54
2022/09/21 02:07:26;;;;;;;24.55;14.82;;;;;;;8.67;77.72;99776.16;5072437;28;20033;-50
2022/09/21 02:09:54;;;;;;;24.35;16.13;;;;;;;8.56;77.88;99752.94;5073115;28;20047;-49
2022/09/21 02:12:19;;;;;;;28.33;17.05;;;;;;;8.67;78.13;99763.66;5073267;28;20024;-50
2022/09/21 02:14:45;;;;;;;25.65;16.42;;;;;;;8.64;78.03;99763.03;5072628;28;20032;-59
2022/09/21 02:17:28;;;;;;;23.52;15.57;;;;;;;8.75;77.80;99773.78;5072565;28;20032;-48
2022/09/21 02:19:53;;;;;;;27.20;16.38;;;;;;;8.69;77.99;99775.09;5072851;28;20036;-50
2022/09/21 02:22:40;;;;;;;31.90;17.90;;;;;;;8.80;78.18;99784.13;5072884;28;20051;-49
2022/09/21 02:25:17;;;;;;;31.23;17.65;;;;;;;8.78;78.16;99786.06;5072584;28;20171;-50
2022/09/21 02:27:53;;;;;;;27.52;17.38;;;;;;;8.76;78.30;99787.03;5052776;28;20036;-53
2022/09/21 02:30:22;;;;;;;27.17;17.38;;;;;;;8.73;78.52;99786.38;5061207;28;20063;-51
2022/09/21 02:32:53;;;;;;;28.42;17.15;;;;;;;8.72;78.22;99777.53;5072424;28;20032;-52
2022/09/21 02:35:21;;;;;;;31.15;17.35;;;;;;;8.72;78.29;99780.22;5072171;28;20020;-54
2022/09/21 02:37:55;;;;;;;25.38;17.05;;;;;;;8.78;78.23;99783.38;5071990;28;20028;-58
2022/09/21 02:40:24;;;;;;;28.73;17.15;;;;;;;8.75;78.26;99787.97;5072667;28;20036;-53
2022/09/21 02:42:58;;;;;;;23.88;16.63;;;;;;;8.81;77.84;99793.81;5072369;28;20036;-52
2022/09/21 02:45:28;;;;;;;27.75;17.00;;;;;;;8.79;77.96;99788.59;5071708;28;20035;-51
2022/09/21 02:48:00;;;;;;;28.92;17.00;;;;;;;8.81;77.66;99794.69;5070166;28;20331;-52
2022/09/21 02:50:32;;;;;;;27.33;16.30;;;;;;;8.81;77.98;99788.50;5071929;28;20037;-50
2022/09/21 02:53:00;;;;;;;28.83;16.10;;;;;;;8.86;77.58;99794.34;5072147;28;20149;-53
2022/09/21 02:55:27;;;;;;;28.17;17.10;;;;;;;8.84;77.91;99777.59;5071423;28;20028;-52
2022/09/21 02:57:54;;;;;;;32.13;16.45;;;;;;;8.89;78.03;99781.63;5072055;28;20033;-54
2022/09/21 03:00:20;;;;;;;22.58;15.95;;;;;;;8.92;77.49;99785.84;5072242;28;20451;-48
2022/09/21 03:02:45;;;;;;;23.10;15.27;;;;;;;8.95;77.63;99780.31;5071761;28;20028;-50
2022/09/21 03:05:12;;;;;;;24.15;16.00;;;;;;;9.00;77.47;99782.63;5072032;28;20526;-49
2022/09/21 03:07:38;;;;;;;28.35;15.60;;;;;;;9.04;77.35;99781.41;5072204;28;20498;-57
2022/09/21 03:10:07;;;;;;;25.48;15.45;;;;;;;9.11;77.40;99779.16;5071442;28;20055;-51
2022/09/21 03:12:32;;;;;;;27.63;14.85;;;;;;;9.16;77.26;99785.00;5072147;28;20107;-53
2022/09/21 03:14:58;;;;;;;26.63;15.30;;;;;;;9.22;77.08;99781.00;5071960;28;20052;-54
2022/09/21 03:17:24;;;;;;;22.00;15.18;;;;;;;9.24;76.77;99782.59;5071394;28;20033;-51
2022/09/21 03:19:53;;;;;;;22.35;14.68;;;;;;;9.31;76.65;99781.16;5072056;28;20033;-55
2022/09/21 03:22:22;;;;;;;22.10;14.02;;;;;;;9.26;76.60;99766.44;5072034;28;20424;-61
2022/09/21 03:24:49;;;;;;;23.02;14.90;;;;;;;9.34;76.25;99762.22;5071947;28;20036;-54
2022/09/21 03:27:20;;;;;;;24.35;14.10;;;;;;;9.56;76.56;99786.47;5072084;28;20082;-56
2022/09/21 03:29:46;;;;;;;23.20;13.73;;;;;;;9.56;76.59;99779.28;5072653;28;20059;-52
2022/09/21 03:32:13;;;;;;;18.27;13.25;;;;;;;9.66;75.94;99783.94;5071132;28;20431;-53
2022/09/21 03:34:39;;;;;;;24.50;13.88;;;;;;;9.73;75.64;99782.47;5071314;28;20399;-54
2022/09/21 03:37:06;;;;;;;22.60;13.07;;;;;;;9.81;75.63;99787.22;5072026;28;20043;-53
2022/09/21 03:39:31;;;;;;;24.70;13.93;;;;;;;9.87;75.59;99781.41;5071211;28;20025;-55
2022/09/21 03:41:57;;;;;;;22.48;13.30;;;;;;;9.97;75.42;99776.19;5071415;28;20032;-54
2022/09/21 03:44:24;;;;;;;19.00;12.80;;;;;;;10.06;75.08;99780.78;5071509;28;20049;-52
2022/09/21 03:46:50;;;;;;;21.98;12.88;;;;;;;10.02;75.35;99757.94;5071942;28;20036;-60
2022/09/21 03:49:16;;;;;;;25.08;11.90;;;;;;;10.10;75.13;99755.47;5071215;28;20315;-53
2022/09/21 03:51:42;;;;;;;19.75;12.07;;;;;;;10.30;74.53;99769.97;5071326;28;20089;-53
2022/09/21 03:54:09;;;;;;;23.13;13.02;;;;;;;10.40;74.75;99772.78;5071872;28;20112;-54
2022/09/21 03:56:34;;;;;;;23.15;11.57;;;;;;;10.51;74.33;99768.38;5071638;28;20036;-56
2022/09/21 03:59:00;;;;;;;26.58;12.05;;;;;;;10.61;74.41;99774.69;5072652;28;20465;-59
2022/09/21 04:01:25;;;;;;;21.65;12.38;;;;;;;10.71;73.91;99769.41;5075454;28;20060;-55
2022/09/21 04:03:51;;;;;;;24.67;12.20;;;;;;;10.79;73.51;99771.44;5075152;28;20121;-57
2022/09/21 04:06:17;;;;;;;24.70;12.02;;;;;;;10.88;73.50;99768.88;5075732;28;20029;-59
2022/09/21 04:08:42;;;;;;;23.92;12.23;;;;;;;10.95;73.23;99771.91;5075673;28;20365;-57
2022/09/21 04:11:12;;;;;;;21.70;11.98;;;;;;;11.06;73.07;99782.56;5074419;28;20093;-56
2022/09/21 04:13:38;;;;;;;25.33;12.68;;;;;;;11.02;72.68;99756.16;5074842;28;20047;-57
2022/09/21 04:16:04;;;;;;;24.27;12.98;;;;;;;11.23;72.20;99780.28;5075568;28;20033;-56
2022/09/21 04:18:29;;;;;;;27.75;13.27;;;;;;;11.29;72.47;99771.72;5075159;28;20443;-56
2022/09/21 04:20:55;;;;;;;22.25;13.68;;;;;;;11.40;71.67;99776.19;5054691;28;20474;-55
2022/09/21 04:23:21;;;;;;;28.77;13.55;;;;;;;11.44;71.54;99772.25;5055136;28;20059;-64
2022/09/21 04:25:50;;;;;;;20.58;13.30;;;;;;;11.56;71.50;99772.19;5055242;28;20033;-63
2022/09/21 04:28:16;;;;;;;30.02;13.38;;;;;;;11.54;70.98;99755.41;5060776;28;20028;-63
2022/09/21 04:30:42;;;;;;;25.30;12.75;;;;;;;11.69;70.52;99761.25;5074521;28;20119;-63
2022/09/21 04:33:07;;;;;;;27.80;12.90;;;;;;;11.77;69.73;99762.31;5074350;28;20116;-64
2022/09/21 04:35:33;;;;;;;17.70;10.95;;;;;;;11.88;69.51;99768.56;5073995;28;20037;-65
2022/09/21 04:37:58;;;;;;;22.42;10.85;;;;;;;11.93;69.33;99769.00;5073713;28;20362;-64
2022/09/21 04:40:24;;;;;;;23.98;10.23;;;;;;;11.99;68.95;99770.28;5074483;28;20086;-63
2022/09/21 04:42:53;;;;;;;20.08;10.05;;;;;;;12.05;69.03;99775.16;5074448;28;20031;-65
2022/09/21 04:45:22;;;;;;;16.77;9.80;;;;;;;12.14;68.46;99771.69;5073574;28;20520;-65
2022/09/21 04:47:48;;;;;;;18.33;9.23;;;;;;;12.20;68.04;99772.97;5073951;28;20064;-64
2022/09/21 04:50:13;;;;;;;18.42;9.90;;;;;;;12.26;67.93;99769.75;5074154;28;20079;-64
2022/09/21 04:52:39;;;;;;;17.88;9.40;;;;;;;12.33;67.69;99775.41;5073902;28;20032;-64
2022/09/21 04:55:06;;;;;;;16.58;9.32;;;;;;;12.38;67.10;99780.34;5074434;28;20084;-64
2022/09/21 04:57:32;;;;;;;15.05;8.57;;;;;;;12.43;66.97;99773.59;5073778;28;20497;-64
2022/09/21 04:59:57;;;;;;;17.60;8.65;;;;;;;12.37;66.90;99758.03;5074324;28;20036;-63
2022/09/21 05:02:23;;;;;;;14.63;8.77;;;;;;;12.64;67.00;99786.09;5074674;28;20029;-64
2022/09/21 05:04:48;;;;;;;13.85;8.32;;;;;;;12.73;66.38;99793.31;5073681;28;20032;-64
2022/09/21 05:07:14;;;;;;;12.95;9.32;;;;;;;12.84;66.51;99796.88;5073411;28;20024;-63
2022/09/21 05:12:24;;;;;;;16.02;9.15;;;;;;;13.02;65.37;99795.19;5073468;28;20420;-64
2022/09/21 05:14:49;;;;;;;14.70;9.77;;;;;;;13.12;65.01;99795.19;5074004;28;20029;-64
2022/09/21 05:17:15;;;;;;;15.98;9.60;;;;;;;13.20;64.56;99794.47;5074083;28;20063;-64
2022/09/21 05:19:41;;;;;;;16.20;9.07;;;;;;;13.25;64.57;99789.50;5073587;28;20109;-64
2022/09/21 05:22:06;;;;;;;16.35;9.00;;;;;;;13.31;63.97;99791.66;5072814;28;20100;-64
2022/09/21 05:24:32;;;;;;;13.63;9.02;;;;;;;13.41;64.17;99788.09;5074100;28;20032;-64
2022/09/21 05:26:57;;;;;;;11.98;8.85;;;;;;;13.53;64.03;99792.38;5073746;28;20040;-63
2022/09/21 05:29:23;;;;;;;16.75;9.60;;;;;;;13.57;63.02;99769.56;5073611;28;20036;-65
2022/09/21 05:32:14;;;;;;;12.80;8.75;;;;;;;13.97;62.47;99788.28;5072797;28;20036;-64
2022/09/21 05:34:58;;;;;;;11.57;8.43;;;;;;;14.19;62.22;99787.91;5073037;28;20043;-64
2022/09/21 05:37:39;;;;;;;16.13;8.55;;;;;;;14.30;61.05;99784.19;5072675;28;20024;-64
2022/09/21 05:40:08;;;;;;;15.95;9.55;;;;;;;14.32;60.45;99786.75;5072882;28;20039;-64
2022/09/21 05:42:34;;;;;;;16.38;8.60;;;;;;;14.49;60.19;99787.78;5072781;28;20028;-63
2022/09/21 05:45:00;;;;;;;15.80;8.80;;;;;;;14.71;59.35;99777.63;5072556;28;20035;-63
2022/09/21 05:47:44;;;;;;;17.25;8.70;;;;;;;15.09;59.22;99785.56;5073229;28;20053;-64
2022/09/21 05:50:41;;;;;;;11.85;7.80;;;;;;;15.44;58.31;99782.00;5073255;28;20374;-64
2022/09/21 05:53:31;;;;;;;11.85;7.78;;;;;;;15.53;57.37;99782.03;5073457;28;20111;-64
2022/09/21 05:56:07;;;;;;;16.13;7.90;;;;;;;15.49;57.10;99784.22;5072848;28;20389;-63
2022/09/21 05:58:44;;;;;;;12.27;7.32;;;;;;;15.56;57.21;99757.47;5072761;28;20040;-63
2022/09/21 06:01:10;;;;;;;9.25;7.53;;;;;;;15.70;55.87;99778.47;5071479;28;20072;-64
2022/09/21 06:03:37;;;;;;;10.63;6.72;;;;;;;15.56;56.05;99779.88;5073051;28;20094;-63
2022/09/21 06:06:02;;;;;;;14.63;7.05;;;;;;;15.47;56.35;99752.00;5072709;28;20024;-64
2022/09/21 06:08:28;;;;;;;12.02;6.63;;;;;;;15.87;55.04;99774.00;5072388;28;20051;-65
2022/09/21 06:10:54;;;;;;;11.68;7.25;;;;;;;16.09;54.42;99788.00;5071421;28;20028;-63
2022/09/21 06:13:19;;;;;;;12.40;7.22;;;;;;;16.24;53.85;99782.00;5073067;28;20136;-64
2022/09/21 06:15:45;;;;;;;11.95;6.90;;;;;;;16.36;53.75;99783.38;5072999;28;20071;-63
2022/09/21 06:18:11;;;;;;;10.82;7.60;;;;;;;16.62;52.29;99777.91;5072692;28;20035;-64
2022/09/21 06:20:36;;;;;;;10.45;7.70;;;;;;;16.89;51.94;99780.53;5073046;28;20047;-64
2022/09/21 06:23:04;;;;;;;12.45;7.07;;;;;;;17.35;51.34;99790.91;5072729;28;20033;-63
2022/09/21 06:25:30;;;;;;;10.93;7.80;;;;;;;17.82;49.77;99780.38;5072380;28;20024;-65
2022/09/21 06:28:05;;;;;;;11.20;7.90;;;;;;;18.15;48.81;99762.19;5072768;28;20039;-63
2022/09/21 06:30:34;;;;;;;12.48;8.13;;;;;;;18.38;48.39;99790.38;5072798;28;20032;-63
2022/09/21 06:33:01;;;;;;;13.85;8.00;;;;;;;18.45;47.55;99761.56;5072716;28;20029;-62
2022/09/21 06:35:28;;;;;;;12.63;7.72;;;;;;;19.20;46.27;99787.22;5071626;28;20032;-64
2022/09/21 06:38:05;;;;;;;13.20;8.10;;;;;;;20.45;44.42;99781.38;5072064;28;20036;-65
2022/09/21 06:40:32;;;;;;;11.82;7.95;;;;;;;21.50;41.63;99772.88;5072093;28;20035;-63
2022/09/21 06:42:59;;;;;;;13.27;8.90;;;;;;;22.45;39.30;99779.78;5071892;28;20028;-63
2022/09/21 06:45:26;;;;;;;11.65;7.95;;;;;;;23.57;36.71;99778.59;5066540;28;20035;-64
2022/09/21 06:47:52;;;;;;;14.00;8.70;;;;;;;25.33;34.04;99776.91;5068594;28;20168;-66
2022/09/21 06:50:18;;;;;;;13.80;8.75;;;;;;;27.02;30.47;99762.22;5071709;28;20123;-61
2022/09/21 06:52:45;;;;;;;16.10;8.60;;;;;;;28.46;27.95;99755.69;5071265;28;20041;-65
2022/09/21 06:55:10;;;;;;;10.63;9.00;;;;;;;29.83;26.64;99758.59;5071765;28;20101;-65
2022/09/21 06:57:39;;;;;;;11.05;8.05;;;;;;;31.12;24.71;99780.63;5072146;28;20388;-60
2022/09/21 07:00:08;;;;;;;11.32;8.00;;;;;;;32.31;23.26;99787.03;5071399;28;20089;-61
2022/09/21 07:02:33;;;;;;;12.45;7.97;;;;;;;31.64;23.21;99782.75;5070966;28;20029;-63
2022/09/21 07:04:59;;;;;;;10.48;7.90;;;;;;;31.05;23.61;99792.72;5072060;28;20032;-63
2022/09/21 07:07:25;;;;;;;10.95;8.05;;;;;;;31.68;23.36;99779.47;5067493;28;20469;-62
2022/09/21 07:09:50;;;;;;;10.52;6.97;;;;;;;32.54;21.84;99780.25;5054125;28;20041;-63
2022/09/21 07:12:17;;;;;;;16.08;7.63;;;;;;;32.73;21.19;99786.09;5052293;28;20036;-62
2022/09/21 07:14:45;;;;;;;13.55;7.75;;;;;;;31.67;22.63;99775.84;5051483;28;20183;-62
2022/09/21 07:17:12;;;;;;;12.48;7.82;;;;;;;30.26;24.21;99777.44;5069213;28;20363;-61
2022/09/21 07:19:37;;;;;;;9.82;7.95;;;;;;;29.11;25.94;99776.72;5071713;28;20021;-62
2022/09/21 07:22:03;;;;;;;10.63;7.50;;;;;;;27.86;27.17;99781.59;5071659;28;20034;-62
2022/09/21 07:24:29;;;;;;;11.07;8.20;;;;;;;26.56;29.15;99780.16;5071903;28;20039;-62
2022/09/21 07:26:54;;;;;;;10.13;7.97;;;;;;;25.57;30.70;99788.13;5069894;28;20056;-61
2022/09/21 07:29:19;;;;;;;10.88;7.00;;;;;;;25.01;31.14;99784.28;5069652;28;20319;-59
2022/09/21 07:31:46;;;;;;;19.38;7.60;;;;;;;23.94;32.87;99786.31;5070890;28;20089;-61
2022/09/21 07:34:12;;;;;;;11.70;8.15;;;;;;;23.17;34.47;99770.38;5066668;28;20101;-65
2022/09/21 07:36:38;;;;;;;13.27;8.27;;;;;;;22.94;35.22;99782.50;5086391;28;20028;-60
2022/09/21 07:39:04;;;;;;;12.45;8.60;;;;;;;22.65;35.60;99779.91;5096092;28;20422;-62
2022/09/21 07:41:29;;;;;;;10.75;7.60;;;;;;;22.87;35.25;99776.16;5095209;28;20035;-61
2022/09/21 07:43:55;;;;;;;11.93;7.93;;;;;;;23.02;35.18;99775.97;5076701;28;20032;-60
2022/09/21 07:46:20;;;;;;;15.05;8.07;;;;;;;23.04;35.00;99765.72;5075109;28;20474;-64
2022/09/21 07:48:46;;;;;;;15.38;8.18;;;;;;;23.09;34.71;99782.31;5075516;28;20447;-56
2022/09/21 07:51:14;;;;;;;23.08;8.38;;;;;;;23.15;34.25;99767.81;5074610;28;20040;-57
2022/09/21 07:53:43;;;;;;;6.97;5.20;;;;;;;23.02;34.55;99784.16;5074240;28;20111;-56
2022/09/21 07:56:14;;;;;;;7.28;5.68;;;;;;;22.48;35.94;99784.00;5074893;28;20047;-56
2022/09/21 08:01:26;;;;;;;12.30;5.95;;;;;;;20.63;38.42;99772.00;5082667;28;20039;-58
2022/09/21 08:03:53;;;;;;;9.02;5.97;;;;;;;20.22;39.89;99787.78;5095024;28;20510;-54
2022/09/21 08:06:19;;;;;;;8.35;5.95;;;;;;;20.01;40.49;99787.69;5095664;28;20028;-56
2022/09/21 08:08:47;;;;;;;6.53;4.07;;;;;;;19.71;39.91;99785.78;5092291;28;20044;-56
2022/09/21 08:11:14;;;;;;;12.30;5.80;;;;;;;19.28;41.34;99775.44;5074444;28;20041;-56
2022/09/21 08:13:40;;;;;;;10.23;5.25;;;;;;;19.00;41.75;99767.84;5074610;28;20544;-55
2022/09/21 08:16:06;;;;;;;10.57;5.30;;;;;;;18.86;42.66;99776.75;5074213;28;20108;-56
2022/09/21 08:18:34;;;;;;;7.53;5.43;;;;;;;18.75;42.97;99783.44;5075047;28;20076;-55
2022/09/21 08:21:00;;;;;;;10.02;6.22;;;;;;;18.74;43.23;99769.00;5074935;28;20077;-57
2022/09/21 08:23:27;;;;;;;10.50;6.47;;;;;;;18.48;43.86;99781.00;5074059;28;20111;-56
2022/09/21 08:26:05;;;;;;;13.57;6.80;;;;;;;18.43;44.07;99783.41;5074775;28;20029;-55
2022/09/21 08:28:30;;;;;;;13.85;6.25;;;;;;;18.02;44.82;99783.56;5075298;28;20097;-55
2022/09/21 08:31:00;;;;;;;12.88;7.00;;;;;;;17.89;45.21;99784.94;5073683;28;20032;-58
2022/09/21 08:33:26;;;;;;;10.38;7.00;;;;;;;17.60;46.09;99778.22;5073609;28;20463;-56
2022/09/21 08:35:57;;;;;;;7.15;5.80;;;;;;;17.58;45.52;99780.22;5074308;28;20104;-55
2022/09/21 08:38:22;;;;;;;15.23;6.90;;;;;;;17.36;45.81;99752.00;5074275;28;20117;-57
2022/09/21 08:40:50;;;;;;;9.73;6.80;;;;;;;17.42;46.28;99785.66;5074400;28;20104;-53
2022/09/21 08:43:35;;;;;;;15.35;8.23;;;;;;;17.45;46.51;99777.19;5073652;28;20059;-55
2022/09/21 08:46:09;;;;;;;10.20;7.40;;;;;;;17.46;46.70;99765.38;5072727;28;20025;-55
2022/09/21 08:48:42;;;;;;;10.68;7.13;;;;;;;17.60;46.84;99778.22;5073920;28;20062;-56
2022/09/21 08:51:13;;;;;;;10.05;6.60;;;;;;;17.72;45.88;99748.06;5073166;28;20450;-55
2022/09/21 08:53:42;;;;;;;9.50;6.20;;;;;;;18.07;45.28;99756.78;5073942;28;20048;-55
2022/09/21 08:56:12;;;;;;;7.43;4.95;;;;;;;18.26;44.32;99765.53;5073522;28;20063;-55
2022/09/21 08:58:40;;;;;;;7.45;5.55;;;;;;;18.33;44.45;99756.53;5054058;28;20036;-53
2022/09/21 09:01:18;;;;;;;7.88;5.97;;;;;;;18.42;44.65;99757.34;5057736;28;20391;-58
2022/09/21 09:03:55;;;;;;;9.60;6.20;;;;;;;18.39;45.02;99743.28;5073254;28;20036;-58
2022/09/21 09:06:33;;;;;;;8.43;5.20;;;;;;;18.61;44.26;99747.06;5073802;28;20102;-53
2022/09/21 09:09:07;;;;;;;9.20;4.90;;;;;;;18.75;44.51;99757.13;5073516;28;20032;-54
2022/09/21 09:11:36;;;;;;;7.88;4.45;;;;;;;18.76;43.55;99739.84;5073476;28;20036;-55
2022/09/21 09:14:23;;;;;;;4.95;4.43;;;;;;;18.84;43.34;99754.41;5073874;28;20024;-57
2022/09/21 09:17:06;;;;;;;7.32;5.53;;;;;;;18.46;44.07;99761.38;5073523;28;20067;-60
2022/09/21 09:19:54;;;;;;;9.57;5.63;;;;;;;18.29;45.13;99748.91;5073532;28;20116;-59
2022/09/21 09:22:35;;;;;;;8.63;5.50;;;;;;;18.40;44.90;99751.25;5072783;28;20053;-60
2022/09/21 09:25:13;;;;;;;6.68;5.13;;;;;;;18.39;44.35;99754.13;5073378;28;20122;-62
2022/09/21 09:27:43;;;;;;;6.80;5.25;;;;;;;17.83;45.27;99723.31;5073145;28;20056;-61
2022/09/21 09:30:18;;;;;;;8.20;4.93;;;;;;;17.76;45.09;99712.34;5072932;28;20036;-60
2022/09/21 09:32:44;;;;;;;5.22;4.35;;;;;;;17.71;45.45;99733.66;5072695;28;20055;-62
2022/09/21 09:35:32;;;;;;;7.25;4.50;;;;;;;17.70;45.47;99739.28;5072730;28;20463;-61
2022/09/21 09:38:29;;;;;;;8.52;4.90;;;;;;;17.55;45.98;99734.56;5073340;28;20051;-60
2022/09/21 09:41:16;;;;;;;6.38;4.80;;;;;;;17.56;46.02;99738.13;5070409;28;20526;-61
2022/09/21 09:44:02;;;;;;;5.57;4.68;;;;;;;17.56;45.44;99733.53;5073219;28;20415;-60
2022/09/21 09:46:28;;;;;;;6.38;4.80;;;;;;;17.43;46.17;99734.06;5073206;28;20052;-60
2022/09/21 09:49:03;;;;;;;10.38;4.22;;;;;;;17.85;44.80;99742.97;5072649;28;20126;-62
2022/09/21 09:51:28;;;;;;;8.03;4.30;;;;;;;17.45;45.31;99723.06;5070225;28;20264;-68
2022/09/21 09:53:58;;;;;;;5.90;3.63;;;;;;;17.69;45.22;99735.69;5055220;28;20496;-65
2022/09/21 09:56:23;;;;;;;6.05;3.83;;;;;;;18.01;44.88;99724.94;5072058;28;20040;-64
2022/09/21 09:58:55;;;;;;;5.47;4.22;;;;;;;18.08;44.95;99729.53;5072600;28;20037;-65
2022/09/21 10:01:47;;;;;;;4.68;4.13;;;;;;;18.33;44.75;99709.63;5072208;28;20090;-64
2022/09/21 10:04:16;;;;;;;5.50;3.72;;;;;;;18.19;45.43;99738.28;5052959;28;20052;-64
2022/09/21 10:06:42;;;;;;;7.85;4.68;;;;;;;17.97;46.15;99737.16;5052621;28;20060;-64
2022/09/21 10:09:27;;;;;;;4.10;3.70;;;;;;;17.90;46.48;99735.16;5052432;28;20053;-65
2022/09/21 10:11:57;;;;;;;4.20;3.33;;;;;;;17.86;46.65;99733.81;5053124;28;20125;-64
2022/09/21 10:14:25;;;;;;;8.10;3.40;;;;;;;18.05;45.68;99742.56;5053334;28;20499;-65
2022/09/21 10:16:54;;;;;;;4.82;2.88;;;;;;;18.26;44.34;99738.44;5072781;28;20032;-67
2022/09/21 10:19:24;;;;;;;7.22;3.20;;;;;;;18.37;44.80;99729.94;5052401;28;20033;-64
2022/09/21 10:21:58;;;;;;;4.13;2.65;;;;;;;18.62;43.96;99721.66;5052953;28;20028;-63
2022/09/21 10:24:51;;;;;;;6.13;2.47;;;;;;;18.95;43.14;99721.41;5052693;28;20171;-65
2022/09/21 10:27:24;;;;;;;1.50;1.40;;;;;;;18.91;40.18;99728.22;5050372;28;20044;-65
2022/09/21 10:29:50;;;;;;;1.38;1.13;;;;;;;18.47;39.60;99716.97;5052316;28;20029;-64
2022/09/21 10:32:15;;;;;;;2.38;1.40;;;;;;;17.97;41.23;99713.66;5053288;28;20044;-66
2022/09/21 10:35:00;;;;;;;2.40;1.48;;;;;;;17.93;41.91;99718.56;5072379;28;20033;-63
2022/09/21 10:37:29;;;;;;;2.22;1.13;;;;;;;17.78;42.23;99723.00;5071716;28;20097;-65
2022/09/21 10:39:56;;;;;;;4.05;1.40;;;;;;;17.12;42.88;99639.22;5072242;28;20465;-64
2022/09/21 10:42:21;;;;;;;2.20;2.00;;;;;;;17.82;42.12;99702.66;5072126;28;20028;-66
2022/09/21 10:45:02;;;;;;;4.20;2.75;;;;;;;18.09;42.21;99719.56;5072176;28;20043;-66
2022/09/21 10:47:35;;;;;;;5.82;2.30;;;;;;;18.20;41.71;99740.84;5071990;28;20059;-65
2022/09/21 10:50:06;;;;;;;3.75;2.28;;;;;;;17.91;42.12;99722.44;5072230;28;20104;-65
2022/09/21 10:52:57;;;;;;;2.70;2.28;;;;;;;17.95;42.59;99731.91;5071872;28;20394;-66
2022/09/21 10:55:24;;;;;;;4.03;2.28;;;;;;;17.62;43.36;99719.34;5072264;28;20043;-65
2022/09/21 10:57:51;;;;;;;4.80;2.60;;;;;;;17.50;43.81;99720.69;5071991;28;20044;-63
2022/09/21 11:00:28;;;;;;;4.03;2.55;;;;;;;17.57;43.84;99718.97;5072071;28;20040;-65
2022/09/21 11:02:55;;;;;;;4.72;2.95;;;;;;;17.47;43.76;99686.69;5072026;28;20028;-64
2022/09/21 11:05:42;;;;;;;4.30;3.20;;;;;;;17.51;44.28;99716.97;5071565;28;20032;-65
2022/09/21 11:08:17;;;;;;;3.80;2.60;;;;;;;17.42;44.71;99720.72;5070768;28;20028;-63
2022/09/21 11:11:20;;;;;;;4.75;3.35;;;;;;;17.46;44.71;99719.34;5071324;28;20059;-65
2022/09/21 11:14:29;;;;;;;4.13;3.00;;;;;;;17.45;45.06;99715.78;5071780;28;20044;-66
2022/09/21 11:16:59;;;;;;;4.40;2.95;;;;;;;17.33;44.82;99717.16;5040472;28;20359;-64
2022/09/21 11:19:36;;;;;;;5.70;2.92;;;;;;;17.26;45.13;99718.88;5071693;28;20037;-63
2022/09/21 11:22:15;;;;;;;2.70;2.50;;;;;;;17.46;44.72;99717.47;5071980;28;20104;-64
2022/09/21 11:24:49;;;;;;;5.85;2.90;;;;;;;17.22;44.83;99708.38;5071540;28;20024;-64
2022/09/21 11:27:18;;;;;;;4.82;3.03;;;;;;;16.98;45.73;99709.22;5071881;28;20033;-64
2022/09/21 11:29:53;;;;;;;6.03;3.10;;;;;;;17.07;45.70;99712.78;5071890;28;20063;-63
2022/09/21 11:32:44;;;;;;;4.90;3.17;;;;;;;17.05;45.84;99714.81;5071344;28;20079;-66
2022/09/21 11:36:04;;;;;;;4.53;3.53;;;;;;;17.34;45.28;99716.16;5050839;28;20032;-63
2022/09/21 11:39:04;;;;;;;3.42;2.67;;;;;;;17.29;44.84;99715.81;5052275;28;20052;-65
2022/09/21 11:41:36;;;;;;;3.97;3.00;;;;;;;17.22;44.63;99704.84;5062415;28;20459;-64
2022/09/21 11:44:22;;;;;;;6.50;3.17;;;;;;;17.07;45.53;99700.09;5071012;28;20051;-64
2022/09/21 11:47:12;;;;;;;7.55;3.60;;;;;;;17.01;45.15;99689.97;5071172;28;20119;-64
2022/09/21 11:49:57;;;;;;;4.38;2.90;;;;;;;17.02;45.42;99705.16;5071302;28;20049;-65